createdAt,value
2022-08-03T00:01:45.305Z,19.20
2022-08-03T00:04:14.645Z,19.10
2022-08-03T00:06:42.783Z,18.90
2022-08-03T00:09:10.990Z,18.90
2022-08-03T00:11:39.300Z,18.90
2022-08-03T00:14:07.662Z,18.90
2022-08-03T00:16:39.009Z,19.00
2022-08-03T00:19:06.997Z,18.90
2022-08-03T00:21:36.383Z,18.90
2022-08-03T00:24:04.573Z,18.80
2022-08-03T00:26:32.521Z,18.80
2022-08-03T00:29:00.490Z,18.90
2022-08-03T00:31:51.609Z,18.80
2022-08-03T00:34:17.782Z,18.70
2022-08-03T00:37:01.981Z,18.50
2022-08-03T00:39:30.093Z,18.40
2022-08-03T00:41:58.050Z,18.40
2022-08-03T00:44:25.992Z,18.40
2022-08-03T00:46:53.982Z,18.30
2022-08-03T00:49:22.042Z,18.30
2022-08-03T00:51:50.221Z,18.20
2022-08-03T00:54:19.929Z,18.20
2022-08-03T00:56:59.996Z,18.20
2022-08-03T00:59:28.556Z,18.20
2022-08-03T01:01:56.661Z,18.30
2022-08-03T01:04:24.961Z,18.20
2022-08-03T01:07:02.217Z,18.10
2022-08-03T01:09:39.261Z,18.10
2022-08-03T01:12:14.713Z,18.00
2022-08-03T01:14:50.868Z,18.00
2022-08-03T01:17:24.392Z,18.00
2022-08-03T01:19:57.690Z,18.00
2022-08-03T01:23:06.642Z,18.00
2022-08-03T01:25:54.202Z,18.00
2022-08-03T01:28:38.711Z,17.90
2022-08-03T01:31:11.323Z,17.80
2022-08-03T01:33:44.126Z,17.80
2022-08-03T01:36:17.048Z,17.80
2022-08-03T01:38:49.588Z,17.80
2022-08-03T01:41:22.407Z,17.80
2022-08-03T01:44:26.193Z,17.80
2022-08-03T01:46:47.832Z,17.80
2022-08-03T01:49:18.499Z,17.80
2022-08-03T01:52:02.946Z,17.70
2022-08-03T01:54:34.025Z,17.60
2022-08-03T01:57:02.686Z,17.50
2022-08-03T01:59:33.497Z,17.50
2022-08-03T02:02:28.947Z,17.40
2022-08-03T02:04:55.649Z,17.50
2022-08-03T02:07:24.730Z,17.50
2022-08-03T02:09:55.271Z,17.50
2022-08-03T02:12:26.113Z,17.50
2022-08-03T02:14:56.475Z,17.50
2022-08-03T02:17:38.689Z,17.40
2022-08-03T02:20:09.713Z,17.50
2022-08-03T02:22:40.657Z,17.30
2022-08-03T02:25:10.082Z,17.30
2022-08-03T02:27:43.609Z,17.20
2022-08-03T02:30:14.265Z,17.20
2022-08-03T02:32:49.187Z,17.20
2022-08-03T02:35:19.624Z,17.20
2022-08-03T02:37:50.107Z,17.20
2022-08-03T02:40:20.167Z,17.20
2022-08-03T02:42:50.396Z,17.20
2022-08-03T02:45:21.269Z,17.10
2022-08-03T02:47:54.987Z,16.90
2022-08-03T02:50:25.420Z,16.90
2022-08-03T02:52:54.078Z,16.90
2022-08-03T02:55:23.479Z,16.90
2022-08-03T02:57:52.747Z,16.90
2022-08-03T03:00:28.027Z,16.90
2022-08-03T03:03:00.501Z,16.80
2022-08-03T03:05:53.089Z,16.90
2022-08-03T03:08:20.849Z,16.90
2022-08-03T03:10:55.522Z,16.80
2022-08-03T03:13:24.142Z,16.80
2022-08-03T03:15:57.641Z,16.80
2022-08-03T03:18:29.435Z,16.70
2022-08-03T03:20:59.081Z,16.70
2022-08-03T03:23:28.929Z,16.60
2022-08-03T03:25:58.906Z,16.60
2022-08-03T03:28:27.503Z,16.60
2022-08-03T03:30:55.793Z,16.60
2022-08-03T03:33:24.165Z,16.50
2022-08-03T03:35:54.538Z,16.50
2022-08-03T03:38:22.583Z,16.40
2022-08-03T03:40:50.708Z,16.40
2022-08-03T03:43:19.530Z,16.30
2022-08-03T03:45:49.422Z,16.20
2022-08-03T03:48:17.474Z,16.20
2022-08-03T03:50:46.556Z,16.20
2022-08-03T03:53:16.294Z,16.30
2022-08-03T03:56:02.242Z,16.20
2022-08-03T03:58:32.405Z,16.20
2022-08-03T04:01:00.807Z,16.20
2022-08-03T04:03:29.048Z,16.20
2022-08-03T04:06:15.239Z,16.20
2022-08-03T04:09:13.341Z,16.20
2022-08-03T04:11:46.676Z,16.20
2022-08-03T04:14:18.846Z,16.20
2022-08-03T04:16:50.178Z,16.20
2022-08-03T04:19:25.854Z,16.10
2022-08-03T04:21:58.707Z,16.20
2022-08-03T04:24:33.860Z,16.20
2022-08-03T04:27:06.298Z,16.20
2022-08-03T04:29:38.616Z,16.30
2022-08-03T04:32:16.001Z,16.30
2022-08-03T04:34:44.358Z,16.30
2022-08-03T04:37:13.752Z,16.30
2022-08-03T04:39:45.444Z,16.40
2022-08-03T04:42:15.049Z,16.50
2022-08-03T04:44:45.433Z,16.60
2022-08-03T04:47:13.465Z,16.70
2022-08-03T04:49:41.853Z,16.80
2022-08-03T04:52:10.875Z,16.80
2022-08-03T04:54:48.779Z,16.90
2022-08-03T04:57:23.183Z,16.90
2022-08-03T05:00:02.682Z,17.00
2022-08-03T05:02:32.266Z,17.10
2022-08-03T05:05:00.771Z,17.20
2022-08-03T05:07:35.681Z,17.30
2022-08-03T05:10:15.855Z,17.40
2022-08-03T05:12:44.945Z,17.40
2022-08-03T05:15:13.285Z,17.50
2022-08-03T05:17:41.833Z,17.50
2022-08-03T05:20:12.476Z,17.60
2022-08-03T05:22:40.505Z,17.70
2022-08-03T05:25:16.913Z,17.80
2022-08-03T05:27:47.234Z,17.90
2022-08-03T05:30:29.744Z,18.00
2022-08-03T05:33:01.729Z,18.10
2022-08-03T05:36:01.934Z,18.30
2022-08-03T05:38:24.074Z,18.40
2022-08-03T05:41:22.096Z,18.50
2022-08-03T05:43:47.226Z,18.70
2022-08-03T05:46:15.618Z,18.80
2022-08-03T05:48:44.283Z,18.90
2022-08-03T05:51:12.549Z,19.00
2022-08-03T05:53:40.816Z,19.10
2022-08-03T05:56:14.666Z,19.20
2022-08-03T05:58:44.385Z,19.40
2022-08-03T06:01:12.601Z,19.50
2022-08-03T06:03:40.648Z,19.60
2022-08-03T06:06:08.704Z,19.70
2022-08-03T06:08:36.942Z,19.80
2022-08-03T06:11:05.194Z,19.90
2022-08-03T06:13:35.024Z,20.00
2022-08-03T06:16:03.397Z,20.20
2022-08-03T06:18:31.323Z,20.20
2022-08-03T06:21:11.068Z,20.30
2022-08-03T06:23:54.054Z,20.40
2022-08-03T06:26:25.563Z,20.50
2022-08-03T06:28:55.433Z,20.60
2022-08-03T06:31:32.300Z,20.70
2022-08-03T06:34:33.865Z,20.90
2022-08-03T06:36:52.308Z,21.00
2022-08-03T06:39:23.444Z,21.20
2022-08-03T06:41:52.906Z,21.40
2022-08-03T06:44:22.293Z,21.40
2022-08-03T06:46:51.138Z,21.60
2022-08-03T06:49:19.197Z,21.80
2022-08-03T06:52:04.539Z,21.90
2022-08-03T06:54:34.857Z,21.90
2022-08-03T06:57:02.995Z,22.00
2022-08-03T07:00:07.447Z,22.10
2022-08-03T07:02:20.670Z,22.10
2022-08-03T07:04:48.945Z,22.30
2022-08-03T07:07:17.423Z,22.30
2022-08-03T07:09:56.768Z,22.40
2022-08-03T07:12:27.531Z,22.60
2022-08-03T07:15:00.637Z,22.70
2022-08-03T07:17:29.850Z,23.00
2022-08-03T07:19:57.913Z,23.20
2022-08-03T07:22:25.880Z,23.30
2022-08-03T07:24:54.051Z,23.30
2022-08-03T07:27:22.512Z,23.40
2022-08-03T07:29:50.713Z,23.40
2022-08-03T07:32:20.060Z,23.50
2022-08-03T07:34:48.008Z,23.60
2022-08-03T07:37:15.943Z,23.80
2022-08-03T07:39:44.133Z,24.00
2022-08-03T07:42:12.023Z,24.20
2022-08-03T07:44:40.451Z,24.30
2022-08-03T07:47:09.079Z,24.40
2022-08-03T07:49:42.395Z,24.50
2022-08-03T07:52:28.381Z,24.60
2022-08-03T07:54:56.621Z,24.70
2022-08-03T07:57:24.704Z,24.90
2022-08-03T08:00:01.427Z,25.00
2022-08-03T08:02:30.396Z,25.20
2022-08-03T08:05:04.968Z,25.40
2022-08-03T08:07:33.657Z,25.60
2022-08-03T08:10:01.705Z,25.70
2022-08-03T08:12:30.000Z,26.00
2022-08-03T08:14:57.980Z,26.20
2022-08-03T08:17:26.023Z,26.40
2022-08-03T08:19:54.049Z,26.70
2022-08-03T08:22:30.712Z,27.00
2022-08-03T08:25:01.178Z,27.40
2022-08-03T08:28:22.277Z,27.90
2022-08-03T08:30:20.162Z,28.40
2022-08-03T08:32:48.841Z,29.00
2022-08-03T08:35:17.236Z,29.40
2022-08-03T08:37:51.015Z,29.70
2022-08-03T08:40:22.516Z,30.10
2022-08-03T08:42:58.295Z,30.40
2022-08-03T08:45:27.736Z,30.80
2022-08-03T08:48:01.090Z,31.40
2022-08-03T08:50:31.314Z,31.70
2022-08-03T08:53:04.141Z,32.10
2022-08-03T08:55:58.514Z,32.50
2022-08-03T08:58:22.645Z,32.50
2022-08-03T09:00:51.679Z,32.90
2022-08-03T09:03:28.974Z,33.20
2022-08-03T09:05:59.867Z,33.70
2022-08-03T09:08:30.359Z,34.00
2022-08-03T09:10:58.514Z,34.00
2022-08-03T09:13:26.797Z,34.40
2022-08-03T09:16:15.944Z,34.50
2022-08-03T09:18:45.642Z,34.70
2022-08-03T09:21:35.114Z,34.70
2022-08-03T09:24:13.134Z,34.30
2022-08-03T09:26:52.205Z,34.40
2022-08-03T09:29:22.034Z,34.40
2022-08-03T09:32:17.588Z,33.90
2022-08-03T09:34:45.586Z,33.50
2022-08-03T09:37:15.886Z,33.70
2022-08-03T09:39:52.377Z,34.10
2022-08-03T09:42:23.958Z,34.60
2022-08-03T09:44:53.058Z,35.00
2022-08-03T09:47:30.134Z,35.00
2022-08-03T09:50:02.060Z,34.90
2022-08-03T09:52:49.763Z,34.70
2022-08-03T09:56:34.126Z,34.90
2022-08-03T09:58:11.513Z,35.10
2022-08-03T10:00:55.397Z,34.70
2022-08-03T10:03:24.449Z,34.10
2022-08-03T10:05:57.436Z,34.20
2022-08-03T10:08:27.470Z,34.70
2022-08-03T10:10:58.470Z,35.30
2022-08-03T10:13:26.507Z,35.80
2022-08-03T10:16:21.563Z,36.20
2022-08-03T10:18:48.134Z,36.60
2022-08-03T10:21:20.624Z,36.80
2022-08-03T10:23:49.464Z,36.80
2022-08-03T10:26:23.518Z,36.60
2022-08-03T10:28:55.336Z,36.40
2022-08-03T10:31:25.806Z,36.30
2022-08-03T10:33:57.018Z,36.40
2022-08-03T10:36:27.570Z,36.40
2022-08-03T10:38:57.063Z,36.60
2022-08-03T10:41:32.125Z,36.40
2022-08-03T10:44:04.209Z,36.80
2022-08-03T10:46:34.636Z,37.20
2022-08-03T10:49:03.534Z,36.70
2022-08-03T10:51:32.874Z,36.20
2022-08-03T10:54:01.730Z,36.40
2022-08-03T10:57:01.869Z,37.00
2022-08-03T11:00:06.124Z,37.50
2022-08-03T11:03:08.737Z,36.50
2022-08-03T11:05:39.026Z,35.40
2022-08-03T11:08:48.484Z,35.10
2022-08-03T11:11:29.681Z,35.10
2022-08-03T11:14:07.889Z,35.40
2022-08-03T11:16:37.709Z,35.80
2022-08-03T11:19:07.901Z,36.50
2022-08-03T11:21:58.062Z,36.40
2022-08-03T11:24:58.821Z,36.10
2022-08-03T11:27:28.252Z,36.00
2022-08-03T11:29:59.125Z,36.00
2022-08-03T11:32:57.971Z,36.40
2022-08-03T11:35:27.510Z,36.80
2022-08-03T11:38:09.504Z,37.00
2022-08-03T11:40:40.792Z,37.30
2022-08-03T11:43:10.002Z,37.40
2022-08-03T11:45:39.734Z,37.10
2022-08-03T11:48:16.602Z,36.40
2022-08-03T11:50:46.177Z,36.20
2022-08-03T11:53:19.441Z,36.20
2022-08-03T11:55:50.018Z,36.20
2022-08-03T11:59:01.690Z,36.30
2022-08-03T12:01:11.386Z,36.40
2022-08-03T12:03:39.652Z,36.90
2022-08-03T12:06:11.497Z,36.70
2022-08-03T12:08:40.572Z,36.80
2022-08-03T12:11:10.576Z,36.90
2022-08-03T12:14:44.815Z,36.70
2022-08-03T12:16:31.379Z,36.50
2022-08-03T12:19:01.331Z,36.60
2022-08-03T12:21:29.967Z,36.60
2022-08-03T12:24:00.391Z,36.60
2022-08-03T12:26:29.039Z,37.00
2022-08-03T12:28:57.141Z,37.60
2022-08-03T12:31:25.098Z,37.80
2022-08-03T12:34:03.179Z,37.90
2022-08-03T12:36:33.138Z,37.50
2022-08-03T12:39:03.018Z,37.00
2022-08-03T12:41:34.149Z,36.40
2022-08-03T12:44:03.596Z,35.80
2022-08-03T12:46:34.043Z,35.60
2022-08-03T12:49:08.098Z,35.50
2022-08-03T12:51:38.202Z,35.60
2022-08-03T12:54:06.710Z,35.90
2022-08-03T12:56:34.746Z,36.10
2022-08-03T12:59:02.810Z,36.10
2022-08-03T13:01:48.990Z,36.00
2022-08-03T13:04:33.245Z,35.90
2022-08-03T13:07:03.514Z,35.60
2022-08-03T13:09:41.485Z,35.50
2022-08-03T13:12:11.593Z,35.60
2022-08-03T13:14:39.841Z,35.90
2022-08-03T13:17:08.628Z,36.50
2022-08-03T13:19:38.785Z,36.70
2022-08-03T13:22:14.377Z,36.50
2022-08-03T13:24:42.865Z,36.80
2022-08-03T13:28:04.705Z,36.70
2022-08-03T13:30:00.773Z,36.60
2022-08-03T13:32:28.802Z,36.30
2022-08-03T13:34:58.133Z,36.10
2022-08-03T13:37:26.862Z,36.00
2022-08-03T13:39:58.712Z,36.30
2022-08-03T13:42:30.107Z,36.80
2022-08-03T13:44:58.177Z,37.30
2022-08-03T13:47:26.299Z,37.60
2022-08-03T13:50:00.249Z,37.10
2022-08-03T13:52:33.434Z,36.30
2022-08-03T13:55:01.519Z,35.60
2022-08-03T13:58:05.130Z,35.30
2022-08-03T14:00:27.703Z,35.40
2022-08-03T14:03:03.848Z,35.80
2022-08-03T14:05:33.864Z,35.70
2022-08-03T14:08:05.711Z,35.70
2022-08-03T14:10:35.590Z,35.70
2022-08-03T14:13:03.967Z,35.40
2022-08-03T14:15:37.936Z,35.40
2022-08-03T14:18:07.324Z,35.20
2022-08-03T14:20:48.623Z,35.00
2022-08-03T14:23:19.854Z,35.00
2022-08-03T14:25:52.539Z,34.90
2022-08-03T14:28:22.212Z,34.80
2022-08-03T14:30:50.329Z,34.70
2022-08-03T14:33:18.585Z,34.60
2022-08-03T14:35:46.579Z,34.50
2022-08-03T14:38:14.528Z,34.40
2022-08-03T14:40:43.845Z,34.30
2022-08-03T14:43:12.219Z,34.30
2022-08-03T14:45:40.112Z,34.30
2022-08-03T14:50:34.481Z,34.30
2022-08-03T14:50:56.748Z,34.30
2022-08-03T14:53:24.921Z,34.30
2022-08-03T14:55:54.216Z,34.40
2022-08-03T14:58:25.225Z,34.50
2022-08-03T15:00:54.687Z,34.50
2022-08-03T15:03:24.622Z,34.50
2022-08-03T15:05:53.432Z,34.50
2022-08-03T15:08:22.113Z,34.60
2022-08-03T15:10:50.473Z,34.60
2022-08-03T15:13:20.785Z,34.60
2022-08-03T15:15:49.601Z,34.50
2022-08-03T15:18:17.584Z,34.60
2022-08-03T15:20:46.841Z,34.50
2022-08-03T15:23:16.643Z,34.30
2022-08-03T15:26:03.787Z,34.30
2022-08-03T15:28:37.411Z,34.30
2022-08-03T15:31:06.047Z,34.20
2022-08-03T15:33:35.104Z,34.30
2022-08-03T15:36:03.682Z,34.30
2022-08-03T15:38:31.711Z,34.20
2022-08-03T15:40:59.703Z,34.10
2022-08-03T15:43:27.774Z,34.10
2022-08-03T15:46:27.842Z,34.10
2022-08-03T15:48:46.788Z,34.10
2022-08-03T15:51:15.181Z,34.00
2022-08-03T15:53:43.396Z,33.90
2022-08-03T15:56:16.666Z,34.00
2022-08-03T15:59:03.849Z,34.00
2022-08-03T16:01:35.974Z,33.90
2022-08-03T16:04:04.419Z,33.80
2022-08-03T16:06:35.984Z,33.80
2022-08-03T16:09:23.102Z,33.80
2022-08-03T16:11:55.293Z,33.80
2022-08-03T16:14:33.537Z,33.70
2022-08-03T16:17:05.345Z,33.80
2022-08-03T16:19:33.476Z,33.80
2022-08-03T16:22:01.603Z,33.70
2022-08-03T16:24:31.482Z,33.80
2022-08-03T16:27:00.537Z,33.90
2022-08-03T16:29:33.745Z,33.90
2022-08-03T16:32:09.394Z,33.90
2022-08-03T16:34:39.855Z,33.90
2022-08-03T16:37:36.458Z,33.80
2022-08-03T16:39:56.968Z,33.80
2022-08-03T16:42:24.973Z,33.80
2022-08-03T16:44:53.261Z,33.90
2022-08-03T16:47:21.851Z,33.90
2022-08-03T16:49:55.210Z,33.80
2022-08-03T16:52:23.945Z,33.70
2022-08-03T16:54:54.034Z,33.70
2022-08-03T16:57:56.447Z,33.60
2022-08-03T17:00:33.764Z,33.60
2022-08-03T17:03:19.032Z,33.50
2022-08-03T17:05:52.416Z,33.50
2022-08-03T17:08:27.253Z,33.60
2022-08-03T17:10:56.254Z,33.60
2022-08-03T17:13:39.599Z,33.60
2022-08-03T17:16:11.846Z,33.60
2022-08-03T17:18:55.634Z,33.40
2022-08-03T17:21:29.421Z,33.40
2022-08-03T17:24:12.357Z,33.30
2022-08-03T17:26:44.933Z,33.30
2022-08-03T17:29:14.830Z,33.10
2022-08-03T17:31:49.424Z,33.10
2022-08-03T17:34:18.910Z,33.10
2022-08-03T17:37:05.709Z,33.10
2022-08-03T17:39:58.621Z,33.10
2022-08-03T17:42:38.800Z,33.00
2022-08-03T17:45:08.412Z,33.00
2022-08-03T17:47:43.912Z,33.00
2022-08-03T17:50:23.537Z,32.90
2022-08-03T17:53:07.717Z,32.90
2022-08-03T17:55:56.629Z,32.80
2022-08-03T17:58:43.657Z,32.70
2022-08-03T18:02:04.382Z,32.60
2022-08-03T18:04:29.635Z,32.50
2022-08-03T18:07:00.256Z,32.50
2022-08-03T18:10:03.528Z,32.40
2022-08-03T18:12:51.981Z,32.30
2022-08-03T18:15:35.349Z,32.20
2022-08-03T18:20:55.319Z,32.00
2022-08-03T18:23:36.604Z,31.80
2022-08-03T18:26:11.864Z,31.60
2022-08-03T18:28:41.487Z,31.40
2022-08-03T18:31:11.820Z,31.10
2022-08-03T18:34:16.367Z,30.90
2022-08-03T18:36:31.122Z,30.70
2022-08-03T18:39:02.694Z,30.50
2022-08-03T18:41:34.729Z,30.50
2022-08-03T18:44:08.162Z,30.30
2022-08-03T18:46:51.418Z,30.20
2022-08-03T18:49:34.726Z,30.10
2022-08-03T18:52:12.166Z,29.90
2022-08-03T18:55:02.932Z,29.80
2022-08-03T18:57:44.647Z,29.70
2022-08-03T19:00:23.839Z,29.60
2022-08-03T19:02:58.730Z,29.40
2022-08-03T19:05:53.760Z,29.30
2022-08-03T19:08:26.237Z,29.10
2022-08-03T19:11:00.735Z,28.90
2022-08-03T19:13:36.658Z,28.80
2022-08-03T19:16:08.565Z,28.70
2022-08-03T19:18:38.563Z,28.60
2022-08-03T19:21:15.445Z,28.40
2022-08-03T19:23:46.107Z,28.20
2022-08-03T19:26:30.471Z,28.00
2022-08-03T19:29:00.601Z,27.90
2022-08-03T19:31:31.089Z,27.90
2022-08-03T19:34:04.272Z,27.80
2022-08-03T19:36:40.428Z,27.70
2022-08-03T19:39:09.895Z,27.60
2022-08-03T19:41:42.029Z,27.60
2022-08-03T19:44:19.975Z,27.60
2022-08-03T19:46:54.152Z,27.50
2022-08-03T19:50:05.098Z,27.50
2022-08-03T19:52:16.599Z,27.40
2022-08-03T19:54:53.150Z,27.40
2022-08-03T19:57:24.617Z,27.20
2022-08-03T19:59:56.111Z,27.10
2022-08-03T20:02:26.188Z,26.90
2022-08-03T20:07:48.621Z,26.70
2022-08-03T20:10:23.226Z,26.60
2022-08-03T20:12:51.458Z,26.60
2022-08-03T20:15:31.340Z,26.50
2022-08-03T20:18:00.012Z,26.50
2022-08-03T20:20:30.829Z,26.40
2022-08-03T20:23:00.984Z,26.30
2022-08-03T20:25:38.612Z,26.20
2022-08-03T20:28:14.021Z,26.10
2022-08-03T20:30:46.358Z,26.00
2022-08-03T20:33:19.063Z,26.00
2022-08-03T20:35:49.487Z,26.00
2022-08-03T20:38:19.014Z,26.00
2022-08-03T20:40:48.591Z,25.90
2022-08-03T20:43:16.922Z,25.80
2022-08-03T20:46:00.915Z,25.70
2022-08-03T20:48:37.996Z,25.70
2022-08-03T20:51:19.585Z,25.60
2022-08-03T20:53:57.292Z,25.50
2022-08-03T20:56:30.213Z,25.50
2022-08-03T20:59:02.854Z,25.40
2022-08-03T21:01:36.147Z,25.30
2022-08-03T21:04:06.777Z,25.20
2022-08-03T21:06:39.522Z,25.10
2022-08-03T21:09:09.853Z,25.00
2022-08-03T21:11:44.204Z,25.00
2022-08-03T21:12:57.499Z,32.10
2022-08-03T21:13:03.418Z,26.80
2022-08-03T21:14:19.828Z,24.90
2022-08-03T21:16:51.880Z,24.90
2022-08-03T21:19:23.082Z,24.80
2022-08-03T21:21:51.412Z,24.80
2022-08-03T21:24:22.696Z,24.60
2022-08-03T21:26:54.500Z,24.60
2022-08-03T21:29:22.643Z,24.40
2022-08-03T21:31:52.553Z,24.30
2022-08-03T21:34:22.093Z,24.30
2022-08-03T21:36:50.592Z,24.30
2022-08-03T21:39:18.817Z,24.20
2022-08-03T21:41:46.916Z,24.30
2022-08-03T21:44:18.071Z,24.30
2022-08-03T21:46:56.146Z,24.40
2022-08-03T21:49:51.994Z,24.50
2022-08-03T21:52:16.848Z,24.40
2022-08-03T21:54:46.294Z,24.30
2022-08-03T21:57:20.022Z,24.30
2022-08-03T21:59:54.346Z,24.20
2022-08-03T22:02:32.234Z,24.20
2022-08-03T22:05:00.574Z,24.10
2022-08-03T22:07:34.667Z,24.00
2022-08-03T22:10:05.139Z,23.90
2022-08-03T22:12:34.557Z,23.80
2022-08-03T22:15:04.569Z,23.80
2022-08-03T22:17:54.796Z,23.80
2022-08-03T22:20:25.332Z,24.00
2022-08-03T22:22:56.930Z,24.10
2022-08-03T22:25:30.448Z,24.10
2022-08-03T22:28:00.671Z,24.20
2022-08-03T22:30:29.059Z,24.20
2022-08-03T22:32:58.921Z,24.20
2022-08-03T22:35:28.386Z,24.10
2022-08-03T22:37:58.262Z,24.10
2022-08-03T22:40:27.346Z,24.00
2022-08-03T22:42:55.889Z,24.00
2022-08-03T22:46:07.468Z,23.80
2022-08-03T22:48:17.328Z,23.70
2022-08-03T22:50:45.870Z,23.50
2022-08-03T22:53:18.490Z,23.40
2022-08-03T22:55:46.993Z,23.40
2022-08-03T22:58:16.605Z,23.40
2022-08-03T23:00:53.650Z,23.20
2022-08-03T23:03:26.068Z,23.00
2022-08-03T23:06:15.396Z,22.90
2022-08-03T23:08:46.267Z,22.90
2022-08-03T23:11:15.291Z,22.80
2022-08-03T23:13:43.913Z,22.70
2022-08-03T23:16:12.619Z,22.70
2022-08-03T23:18:44.932Z,22.60
2022-08-03T23:21:15.178Z,22.50
2022-08-03T23:23:44.969Z,22.50
2022-08-03T23:26:13.940Z,22.40
2022-08-03T23:28:46.132Z,22.30
2022-08-03T23:31:15.771Z,22.20
2022-08-03T23:33:46.570Z,22.20
2022-08-03T23:36:30.219Z,22.20
2022-08-03T23:39:02.599Z,22.10
2022-08-03T23:41:31.433Z,22.00
2022-08-03T23:44:01.974Z,21.90
2022-08-03T23:46:31.857Z,21.80
2022-08-03T23:49:01.466Z,21.70
2022-08-03T23:51:39.988Z,21.70
2022-08-03T23:54:16.893Z,21.70
2022-08-03T23:56:55.300Z,21.60
2022-08-03T23:59:29.766Z,21.50
